Time;durP1;ratioP1;P1;durP2;ratioP2;P2;SDS_P1;SDS_P2;PMS_P1;PMS_P2;Temp;Humidity;BMP_temperature;BMP_pressure;BME280_temperature;BME280_humidity;BME280_pressure;Samples;Min_cycle;Max_cycle;Signal;HPM_P1;HPM_P2
2023/09/29 00:00:23;;;;;;;0.40;0.40;;;;;;;17.16;64.86;97114.06;29394;228;64014;-53
2023/09/29 00:00:57;;;;;;;0.40;0.40;;;;;;;17.12;64.88;97117.78;29395;273;63005;-54
2023/09/29 00:01:29;;;;;;;0.37;0.37;;;;;;;17.11;64.89;97121.66;29395;257;63009;-53
2023/09/29 00:02:01;;;;;;;0.40;0.40;;;;;;;17.10;65.41;97126.34;29395;308;63005;-64
2023/09/29 00:02:32;;;;;;;0.40;0.40;;;;;;;17.08;65.36;97123.12;29395;235;63009;-54
2023/09/29 00:03:06;;;;;;;0.30;0.30;;;;;;;17.06;65.31;97119.91;29394;214;64009;-53
2023/09/29 00:03:38;;;;;;;0.40;0.40;;;;;;;17.03;65.43;97124.09;29395;242;63009;-64
2023/09/29 00:04:10;;;;;;;0.40;0.40;;;;;;;17.03;65.55;97118.63;29395;218;63004;-53
2023/09/29 00:04:44;;;;;;;2.17;2.08;;;;;;;17.03;65.55;97124.09;29395;229;63009;-54
2023/09/29 00:05:17;;;;;;;0.40;0.40;;;;;;;17.02;65.55;97118.94;29395;222;63014;-53
2023/09/29 00:05:50;;;;;;;0.40;0.40;;;;;;;17.02;65.65;97124.44;29394;219;64013;-54
2023/09/29 00:06:22;;;;;;;0.30;0.30;;;;;;;17.02;65.67;97121.69;29395;264;63004;-53
2023/09/29 00:06:53;;;;;;;0.40;0.40;;;;;;;17.02;65.71;97121.69;29395;216;63009;-62
2023/09/29 00:07:24;;;;;;;0.40;0.40;;;;;;;17.00;65.77;97122.03;29395;239;63016;-52
2023/09/29 00:07:58;;;;;;;0.40;0.40;;;;;;;17.00;65.82;97115.72;29395;233;63009;-53
2023/09/29 00:08:30;;;;;;;0.35;0.35;;;;;;;17.00;65.93;97132.97;29395;230;63013;-51
2023/09/29 00:09:11;;;;;;;0.30;0.30;;;;;;;17.01;65.81;97111.84;29395;213;63009;-53
2023/09/29 00:09:43;;;;;;;0.40;0.40;;;;;;;17.02;65.81;97121.69;29395;214;63005;-53
2023/09/29 00:10:16;;;;;;;0.40;0.40;;;;;;;17.02;65.74;97119.75;29395;259;63009;-53
2023/09/29 00:10:49;;;;;;;0.40;0.40;;;;;;;17.04;65.72;97117.50;29394;207;64009;-52
2023/09/29 00:11:21;;;;;;;0.40;0.40;;;;;;;17.07;65.71;97121.50;29394;205;64013;-52
2023/09/29 00:11:52;;;;;;;0.30;0.30;;;;;;;17.08;65.52;97117.63;29395;283;63004;-53
2023/09/29 00:12:23;;;;;;;0.40;0.40;;;;;;;17.07;65.58;97114.09;29394;211;64013;-53
2023/09/29 00:12:55;;;;;;;0.30;0.30;;;;;;;17.08;65.58;97117.63;29395;202;63004;-52
2023/09/29 00:13:26;;;;;;;0.30;0.30;;;;;;;17.07;65.33;97118.78;29395;206;63008;-52
2023/09/29 00:13:58;;;;;;;0.30;0.30;;;;;;;17.07;65.50;97121.50;29395;202;63004;-63
2023/09/29 00:14:30;;;;;;;0.40;0.40;;;;;;;17.06;65.25;97119.91;29395;212;63009;-53
2023/09/29 00:15:03;;;;;;;0.40;0.40;;;;;;;17.04;65.41;97114.75;29395;271;63005;-52
2023/09/29 00:15:35;;;;;;;0.40;0.40;;;;;;;17.05;65.23;97112.81;29395;218;63009;-54
2023/09/29 00:16:06;;;;;;;0.40;0.40;;;;;;;17.04;65.28;97114.75;29394;210;64009;-62
2023/09/29 00:16:38;;;;;;;0.40;0.40;;;;;;;17.05;65.01;97115.56;29395;227;63009;-54
2023/09/29 00:17:10;;;;;;;0.40;0.40;;;;;;;17.07;65.03;97113.28;29395;205;63005;-54
2023/09/29 00:17:41;;;;;;;0.40;0.40;;;;;;;17.07;64.83;97113.28;29394;231;64013;-53
2023/09/29 00:18:15;;;;;;;0.30;0.30;;;;;;;17.10;64.93;97112.63;29395;227;63005;-53
2023/09/29 00:18:46;;;;;;;0.40;0.40;;;;;;;17.12;64.51;97112.31;29395;257;63009;-53
2023/09/29 00:19:17;;;;;;;0.40;0.40;;;;;;;17.10;64.53;97109.88;29395;212;63004;-53
2023/09/29 00:19:49;;;;;;;0.40;0.40;;;;;;;17.10;64.67;97101.66;29395;255;63009;-53
2023/09/29 00:20:23;;;;;;;0.40;0.40;;;;;;;17.08;64.80;97109.41;29395;203;63004;-62
2023/09/29 00:20:54;;;;;;;0.40;0.40;;;;;;;17.07;64.96;97105.06;29395;214;63009;-63
2023/09/29 00:21:26;;;;;;;0.40;0.40;;;;;;;17.06;64.94;97103.47;29395;196;63007;-52
2023/09/29 00:21:57;;;;;;;0.40;0.40;;;;;;;17.06;64.89;97108.94;29394;215;64014;-53
2023/09/29 00:22:29;;;;;;;0.40;0.40;;;;;;;17.07;64.77;97099.59;29395;225;63005;-53
2023/09/29 00:23:01;;;;;;;0.40;0.40;;;;;;;17.06;64.83;97097.97;29394;200;64014;-54
2023/09/29 00:23:33;;;;;;;0.40;0.40;;;;;;;17.06;64.80;97097.97;29395;216;63005;-53
2023/09/29 00:24:05;;;;;;;0.40;0.40;;;;;;;17.08;64.58;97099.25;29395;237;63009;-53
2023/09/29 00:24:36;;;;;;;0.40;0.40;;;;;;;17.09;64.69;97097.31;29395;223;63005;-53
2023/09/29 00:25:08;;;;;;;0.60;0.60;;;;;;;17.08;64.60;97101.19;29395;206;63009;-53
2023/09/29 00:25:39;;;;;;;0.52;0.52;;;;;;;17.11;64.64;97097.78;29395;197;63005;-53
2023/09/29 00:26:10;;;;;;;0.40;0.40;;;;;;;17.08;64.70;97101.19;29395;197;63009;-63
2023/09/29 00:26:42;;;;;;;0.40;0.40;;;;;;;17.07;64.60;97097.66;29395;242;63004;-53
2023/09/29 00:27:13;;;;;;;0.40;0.40;;;;;;;17.11;64.72;97106.00;29395;250;63009;-59
2023/09/29 00:27:44;;;;;;;0.50;0.50;;;;;;;17.08;64.56;97106.69;29395;211;63004;-51
2023/09/29 00:28:16;;;;;;;0.32;0.32;;;;;;;17.06;64.64;97104.25;29394;241;64013;-63
2023/09/29 00:28:47;;;;;;;0.40;0.40;;;;;;;17.03;64.60;97099.44;29395;234;63004;-52
2023/09/29 00:29:18;;;;;;;0.40;0.40;;;;;;;17.01;64.71;97098.16;29395;220;63008;-55
2023/09/29 00:29:51;;;;;;;0.40;0.40;;;;;;;17.00;64.90;97093.81;29395;206;63012;-61
2023/09/29 00:30:23;;;;;;;0.37;0.37;;;;;;;17.01;64.74;97100.91;29395;273;63024;-53
2023/09/29 00:30:54;;;;;;;0.40;0.40;;;;;;;17.00;64.98;97104.75;29395;199;63005;-53
2023/09/29 00:31:28;;;;;;;0.40;0.40;;;;;;;17.01;64.95;97106.38;29395;236;63009;-53
2023/09/29 00:31:59;;;;;;;0.40;0.40;;;;;;;17.01;64.77;97100.91;29395;204;63005;-53
2023/09/29 00:32:31;;;;;;;0.40;0.40;;;;;;;17.00;64.79;97104.75;29395;204;63009;-53
2023/09/29 00:33:04;;;;;;;0.40;0.40;;;;;;;17.00;64.94;97107.50;29395;224;63005;-53
2023/09/29 00:33:36;;;;;;;0.40;0.40;;;;;;;16.98;64.94;97107.84;29394;242;64013;-53
2023/09/29 00:34:07;;;;;;;0.40;0.40;;;;;;;16.98;64.73;97112.53;29395;225;63004;-53
2023/09/29 00:34:38;;;;;;;0.40;0.40;;;;;;;16.97;64.67;97109.00;29395;202;63009;-54
2023/09/29 00:35:10;;;;;;;0.40;0.40;;;;;;;16.95;64.62;97113.19;29394;253;64004;-53
2023/09/29 00:35:41;;;;;;;0.40;0.40;;;;;;;16.94;64.65;97104.16;29395;224;63009;-53
2023/09/29 00:36:13;;;;;;;0.40;0.40;;;;;;;16.94;64.76;97106.09;29395;198;63004;-53
2023/09/29 00:36:47;;;;;;;0.40;0.40;;;;;;;16.96;64.44;97109.31;29395;262;63008;-53
2023/09/29 00:37:21;;;;;;;0.40;0.40;;;;;;;16.95;64.69;97108.53;29395;204;63005;-54
2023/09/29 00:37:58;;;;;;;0.40;0.40;;;;;;;16.96;64.58;97103.84;29395;246;63009;-54
2023/09/29 00:38:30;;;;;;;0.40;0.40;;;;;;;16.96;64.47;97104.66;29394;248;64009;-53
2023/09/29 00:39:04;;;;;;;0.75;0.75;;;;;;;16.94;64.61;97112.41;29395;230;63009;-53
2023/09/29 00:39:35;;;;;;;0.40;0.40;;;;;;;16.91;64.86;97106.75;29395;197;63005;-65
2023/09/29 00:40:12;;;;;;;0.40;0.40;;;;;;;16.88;65.06;97108.22;29395;231;63009;-64
2023/09/29 00:40:44;;;;;;;0.40;0.40;;;;;;;16.85;64.84;97108.88;29395;206;63004;-53
2023/09/29 00:41:15;;;;;;;0.40;0.40;;;;;;;16.86;65.20;97109.69;29395;206;63009;-53
2023/09/29 00:41:49;;;;;;;0.40;0.40;;;;;;;16.84;65.04;97110.00;29395;233;63004;-54
2023/09/29 00:42:20;;;;;;;0.40;0.40;;;;;;;16.83;64.99;97110.34;29395;215;63009;-54
2023/09/29 00:42:52;;;;;;;0.40;0.40;;;;;;;16.82;65.10;97105.97;29395;197;63004;-54
2023/09/29 00:43:24;;;;;;;0.40;0.40;;;;;;;16.80;65.22;97110.97;29395;218;63008;-52
2023/09/29 00:43:55;;;;;;;0.40;0.40;;;;;;;16.81;65.01;97109.84;29394;217;64008;-61
2023/09/29 00:44:27;;;;;;;0.40;0.40;;;;;;;16.83;64.92;97110.34;29395;209;63009;-63
2023/09/29 00:44:58;;;;;;;0.32;0.32;;;;;;;16.83;64.79;97110.34;29395;214;63005;-53
2023/09/29 00:45:29;;;;;;;0.40;0.40;;;;;;;16.82;64.85;97109.53;29395;271;63018;-53
2023/09/29 00:46:08;;;;;;;0.30;0.30;;;;;;;16.81;64.98;97112.59;29395;272;63005;-53
2023/09/29 00:46:39;;;;;;;0.40;0.40;;;;;;;16.80;64.99;97103.56;29395;202;63009;-53
2023/09/29 00:47:11;;;;;;;0.77;0.77;;;;;;;16.84;64.77;97111.94;29395;255;63005;-53
2023/09/29 00:47:45;;;;;;;0.30;0.30;;;;;;;16.83;64.73;97110.34;29395;238;63009;-53
2023/09/29 00:48:18;;;;;;;0.30;0.30;;;;;;;16.83;64.42;97110.34;29394;240;64009;-61
2023/09/29 00:48:50;;;;;;;0.85;0.85;;;;;;;16.83;64.55;97104.84;29395;244;63009;-53
2023/09/29 00:49:23;;;;;;;1.05;1.05;;;;;;;16.86;64.46;97105.00;29394;242;64009;-53
2023/09/29 00:49:55;;;;;;;0.40;0.40;;;;;;;16.86;64.16;97099.53;29395;203;63020;-62
2023/09/29 00:50:26;;;;;;;0.35;0.35;;;;;;;16.87;64.14;97111.28;29395;221;63004;-62
2023/09/29 00:50:57;;;;;;;0.30;0.30;;;;;;;16.88;64.12;97107.41;29395;231;63008;-52
2023/09/29 00:51:29;;;;;;;0.40;0.40;;;;;;;16.87;64.15;97101.12;29395;262;63005;-53
2023/09/29 00:52:02;;;;;;;0.40;0.40;;;;;;;16.87;64.34;97101.12;29395;229;63009;-53
2023/09/29 00:52:38;;;;;;;0.40;0.40;;;;;;;16.88;64.18;97107.41;29395;210;63001;-53
2023/09/29 00:53:14;;;;;;;0.40;0.40;;;;;;;16.86;64.12;97105.00;29395;206;63009;-64
2023/09/29 00:53:50;;;;;;;0.40;0.40;;;;;;;16.83;64.40;97102.91;29394;207;64009;-53
2023/09/29 00:54:22;;;;;;;0.40;0.40;;;;;;;16.81;64.33;97107.91;29395;240;63009;-53
2023/09/29 00:54:54;;;;;;;0.40;0.40;;;;;;;16.83;64.64;97107.59;29395;204;63005;-61
2023/09/29 00:55:28;;;;;;;0.40;0.40;;;;;;;16.84;63.96;97106.47;29395;287;63009;-52
2023/09/29 00:56:00;;;;;;;0.40;0.40;;;;;;;16.82;64.12;97108.72;29395;237;63004;-52
2023/09/29 00:56:32;;;;;;;0.32;0.32;;;;;;;16.81;64.22;97096.16;29395;232;63009;-54
2023/09/29 00:57:05;;;;;;;0.45;0.45;;;;;;;16.81;64.13;97107.09;29395;203;63004;-63
2023/09/29 00:57:41;;;;;;;0.30;0.30;;;;;;;16.81;64.16;97101.62;29395;206;63004;-53
2023/09/29 00:58:17;;;;;;;0.40;0.40;;;;;;;16.81;64.15;97102.44;29395;236;63004;-64
2023/09/29 00:58:48;;;;;;;0.40;0.40;;;;;;;16.83;64.18;97100.16;29394;252;64014;-54
2023/09/29 00:59:19;;;;;;;0.30;0.30;;;;;;;16.84;64.08;97095.50;29394;237;64009;-53
2023/09/29 00:59:51;;;;;;;0.40;0.40;;;;;;;16.85;64.22;97103.38;29395;233;63009;-53
2023/09/29 01:00:32;;;;;;;0.30;0.30;;;;;;;16.86;64.04;97102.25;29394;204;64020;-52
2023/09/29 01:01:06;;;;;;;0.40;0.40;;;;;;;16.87;64.00;97100.31;29417;230;63009;-53
2023/09/29 01:01:38;;;;;;;0.30;0.30;;;;;;;16.86;64.06;97104.19;29394;222;64009;-53
2023/09/29 01:02:10;;;;;;;0.30;0.30;;;;;;;16.86;63.93;97099.53;29395;209;63005;-53
2023/09/29 01:02:44;;;;;;;0.40;0.40;;;;;;;16.89;63.80;97101.59;29395;216;63005;-52
2023/09/29 01:03:16;;;;;;;0.40;0.40;;;;;;;16.91;64.01;97104.03;29395;216;63009;-52
2023/09/29 01:03:47;;;;;;;0.30;0.30;;;;;;;16.92;63.86;97102.88;29394;222;64009;-52
2023/09/29 01:04:19;;;;;;;0.30;0.30;;;;;;;16.92;63.75;97103.69;29395;203;63009;-64
2023/09/29 01:04:50;;;;;;;0.40;0.40;;;;;;;16.91;63.92;97104.03;29395;222;63004;-53
2023/09/29 01:05:22;;;;;;;0.40;0.40;;;;;;;16.90;63.88;97099.66;29395;228;63009;-53
2023/09/29 01:05:54;;;;;;;0.40;0.40;;;;;;;16.88;63.95;97101.94;29395;205;63004;-53
2023/09/29 01:06:26;;;;;;;0.68;0.65;;;;;;;16.85;63.97;97097.09;29395;223;63009;-53
2023/09/29 01:06:57;;;;;;;0.40;0.40;;;;;;;16.86;63.97;97101.47;29395;208;63005;-54
2023/09/29 01:07:29;;;;;;;0.40;0.40;;;;;;;16.84;63.75;97100.97;29395;242;63009;-53
2023/09/29 01:08:01;;;;;;;0.30;0.30;;;;;;;16.83;64.08;97099.38;29395;236;63005;-53
2023/09/29 01:08:33;;;;;;;0.30;0.30;;;;;;;16.79;63.92;97099.22;29395;202;63009;-54
2023/09/29 01:09:06;;;;;;;0.30;0.30;;;;;;;16.78;63.93;97103.09;29394;217;64009;-53
2023/09/29 01:09:38;;;;;;;0.30;0.30;;;;;;;16.75;64.16;97099.06;29395;220;63009;-52
2023/09/29 01:10:17;;;;;;;0.30;0.30;;;;;;;16.74;64.15;97102.13;29395;235;63005;-54
2023/09/29 01:10:49;;;;;;;0.40;0.40;;;;;;;16.76;64.25;97099.88;29395;234;63009;-53
2023/09/29 01:11:20;;;;;;;0.40;0.40;;;;;;;16.75;64.38;97099.06;29395;265;63004;-53
2023/09/29 01:11:52;;;;;;;0.30;0.30;;;;;;;16.77;64.35;97098.75;29394;206;64019;-53
2023/09/29 01:12:27;;;;;;;0.40;0.40;;;;;;;16.79;64.48;97093.75;29395;231;63004;-53
2023/09/29 01:12:59;;;;;;;0.37;0.37;;;;;;;16.77;64.24;97093.25;29395;266;63008;-53
2023/09/29 01:13:30;;;;;;;0.40;0.40;;;;;;;16.79;64.44;97098.41;29395;256;63004;-53
2023/09/29 01:14:02;;;;;;;0.40;0.40;;;;;;;16.78;64.36;97103.09;29395;228;63009;-53
2023/09/29 01:14:33;;;;;;;0.40;0.40;;;;;;;16.75;64.31;97093.59;29394;200;64009;-53
2023/09/29 01:15:06;;;;;;;0.40;0.40;;;;;;;16.73;64.25;97095.84;29395;213;63009;-53
2023/09/29 01:15:39;;;;;;;0.40;0.40;;;;;;;16.73;64.49;97097.78;29395;243;63000;-53
2023/09/29 01:16:10;;;;;;;0.40;0.40;;;;;;;16.70;64.57;97101.97;29395;263;63019;-54
2023/09/29 01:16:42;;;;;;;1.75;1.65;;;;;;;16.69;64.67;97100.38;29395;218;63005;-54
2023/09/29 01:17:13;;;;;;;0.40;0.40;;;;;;;16.71;64.69;97097.31;29395;217;63009;-62
2023/09/29 01:17:46;;;;;;;0.40;0.40;;;;;;;16.70;64.73;97099.25;29395;240;63005;-54
2023/09/29 01:18:19;;;;;;;0.40;0.40;;;;;;;16.69;64.66;97099.56;29395;202;63009;-53
2023/09/29 01:18:51;;;;;;;0.40;0.40;;;;;;;16.67;64.72;97102.63;29394;223;64009;-53
2023/09/29 01:19:22;;;;;;;0.40;0.40;;;;;;;16.64;64.67;97103.28;29395;228;63009;-54
2023/09/29 01:19:54;;;;;;;0.40;0.40;;;;;;;16.62;64.94;97102.81;29396;233;63012;-54
2023/09/29 01:20:31;;;;;;;1.77;1.77;;;;;;;16.60;64.83;97105.06;29396;214;63009;-53
2023/09/29 01:21:05;;;;;;;0.40;0.40;;;;;;;16.58;64.91;97110.06;29396;225;63004;-55
2023/09/29 01:21:36;;;;;;;0.40;0.40;;;;;;;16.57;65.02;97108.44;29395;270;64014;-53
2023/09/29 01:22:07;;;;;;;0.40;0.40;;;;;;;16.56;65.25;97104.09;29396;253;63001;-65
2023/09/29 01:22:47;;;;;;;0.40;0.40;;;;;;;16.55;65.11;97118.13;29396;199;63005;-54
2023/09/29 01:23:20;;;;;;;0.40;0.40;;;;;;;16.52;65.31;97114.09;29440;352;63005;-54
2023/09/29 01:23:51;;;;;;;0.40;0.40;;;;;;;16.48;65.68;97115.06;29373;219;63009;-64
2023/09/29 01:24:22;;;;;;;0.40;0.40;;;;;;;16.43;65.77;97107.81;29396;204;63005;-54
2023/09/29 01:24:53;;;;;;;0.40;0.40;;;;;;;16.39;65.64;97109.59;29396;199;63009;-53
2023/09/29 01:25:25;;;;;;;0.40;0.40;;;;;;;16.38;65.80;97116.19;29396;239;63005;-62
2023/09/29 01:25:56;;;;;;;0.40;0.40;;;;;;;16.37;65.53;97115.41;29396;206;63009;-54
2023/09/29 01:26:27;;;;;;;0.40;0.40;;;;;;;16.35;65.66;97108.62;29395;235;64009;-54
2023/09/29 01:26:59;;;;;;;0.43;0.43;;;;;;;16.34;65.74;97107.03;29396;197;63009;-53
2023/09/29 01:27:31;;;;;;;0.40;0.40;;;;;;;16.35;65.46;97116.84;29396;238;63004;-53
2023/09/29 01:28:13;;;;;;;0.40;0.40;;;;;;;16.34;65.34;97110.56;29396;238;63009;-54
2023/09/29 01:28:47;;;;;;;0.40;0.40;;;;;;;16.34;65.50;97110.56;29396;245;63004;-53
2023/09/29 01:29:18;;;;;;;0.40;0.40;;;;;;;16.35;65.31;97105.91;29396;259;63009;-53
2023/09/29 01:29:50;;;;;;;0.40;0.40;;;;;;;16.36;65.19;97112.97;29396;218;63016;-54
2023/09/29 01:30:22;;;;;;;0.40;0.40;;;;;;;16.37;65.12;97109.91;29396;263;63009;-54
2023/09/29 01:30:53;;;;;;;0.40;0.40;;;;;;;16.36;65.00;97102.84;29396;203;63005;-53
2023/09/29 01:31:25;;;;;;;0.40;0.40;;;;;;;16.41;64.74;97110.09;29396;222;63009;-53
2023/09/29 01:31:57;;;;;;;0.40;0.40;;;;;;;16.39;64.77;97112.34;29395;199;64009;-65
2023/09/29 01:32:28;;;;;;;0.40;0.40;;;;;;;16.38;64.85;97108.00;29396;206;63009;-54
2023/09/29 01:32:59;;;;;;;0.40;0.40;;;;;;;16.39;64.88;97109.59;29396;218;63005;-54
2023/09/29 01:33:31;;;;;;;0.40;0.40;;;;;;;16.40;64.91;97108.47;29396;234;63009;-53
2023/09/29 01:34:04;;;;;;;0.40;0.40;;;;;;;16.40;64.89;97116.69;29396;258;63004;-54
2023/09/29 01:34:36;;;;;;;0.50;0.50;;;;;;;16.40;64.92;97112.00;29396;202;63024;-55
2023/09/29 01:35:18;;;;;;;0.40;0.40;;;;;;;16.39;64.98;97109.59;29396;215;63004;-64
2023/09/29 01:35:50;;;;;;;0.40;0.40;;;;;;;16.38;65.02;97110.72;29396;209;63008;-54
2023/09/29 01:36:24;;;;;;;0.40;0.40;;;;;;;16.35;65.05;97120.41;29395;201;64008;-65
2023/09/29 01:36:57;;;;;;;0.40;0.40;;;;;;;16.32;65.29;97114.75;29396;237;63009;-53
2023/09/29 01:37:28;;;;;;;0.40;0.40;;;;;;;16.31;65.53;97121.34;29396;209;63005;-53
2023/09/29 01:37:59;;;;;;;0.40;0.40;;;;;;;16.29;65.33;97115.41;29396;274;63009;-53
2023/09/29 01:38:30;;;;;;;0.40;0.40;;;;;;;16.26;65.64;97116.88;29396;220;63005;-54
2023/09/29 01:39:03;;;;;;;0.40;0.40;;;;;;;16.25;65.44;97111.72;29396;207;63009;-54
2023/09/29 01:39:34;;;;;;;0.30;0.30;;;;;;;16.22;66.06;97112.37;29396;213;63005;-53
2023/09/29 01:40:08;;;;;;;0.40;0.40;;;;;;;16.20;66.13;97111.87;29396;220;63013;-53
2023/09/29 01:40:40;;;;;;;0.40;0.40;;;;;;;16.18;66.20;97117.69;29395;245;64009;-54
2023/09/29 01:41:13;;;;;;;1.17;1.15;;;;;;;16.20;66.21;97114.63;29396;241;63009;-55
2023/09/29 01:41:45;;;;;;;0.40;0.40;;;;;;;16.20;66.06;97109.16;29396;202;63004;-54
2023/09/29 01:42:18;;;;;;;0.40;0.40;;;;;;;16.19;65.79;97108.34;29396;232;63009;-53
2023/09/29 01:42:51;;;;;;;0.40;0.40;;;;;;;16.19;65.84;97108.34;29396;208;63000;-63
2023/09/29 01:43:23;;;;;;;0.40;0.40;;;;;;;16.18;65.89;97105.94;29396;198;63008;-62
2023/09/29 01:43:55;;;;;;;0.40;0.40;;;;;;;16.18;65.80;97105.94;29396;211;63004;-53
2023/09/29 01:44:26;;;;;;;0.40;0.40;;;;;;;16.18;65.48;97106.75;29396;236;63009;-52
2023/09/29 01:44:57;;;;;;;0.40;0.40;;;;;;;16.18;65.57;97101.25;29395;207;64009;-64
2023/09/29 01:45:31;;;;;;;0.40;0.40;;;;;;;16.20;65.56;97098.19;29396;207;63009;-52
2023/09/29 01:46:03;;;;;;;0.40;0.40;;;;;;;16.23;65.39;97111.25;29396;238;63018;-63
2023/09/29 01:46:34;;;;;;;0.40;0.40;;;;;;;16.22;65.06;97102.22;29396;199;63009;-53
2023/09/29 01:47:06;;;;;;;0.40;0.40;;;;;;;16.23;65.05;97100.28;29396;232;63005;-65
2023/09/29 01:47:38;;;;;;;0.40;0.40;;;;;;;16.23;64.89;97100.28;29396;331;63009;-53
2023/09/29 01:48:11;;;;;;;0.40;0.40;;;;;;;16.23;64.85;97101.09;29396;277;63004;-53
2023/09/29 01:48:42;;;;;;;0.32;0.32;;;;;;;16.23;64.91;97105.78;29396;239;63009;-53
2023/09/29 01:49:14;;;;;;;0.40;0.40;;;;;;;16.24;65.16;97099.16;29396;246;63004;-53
2023/09/29 01:49:45;;;;;;;0.40;0.40;;;;;;;16.24;65.23;97104.66;29396;202;63009;-54
2023/09/29 01:50:20;;;;;;;0.40;0.40;;;;;;;16.22;65.25;97104.97;29395;199;64008;-53
2023/09/29 01:50:51;;;;;;;0.40;0.40;;;;;;;16.24;65.16;97107.38;29396;233;63008;-53
2023/09/29 01:51:27;;;;;;;0.40;0.40;;;;;;;16.24;65.33;97108.19;29396;217;63004;-53
2023/09/29 01:51:59;;;;;;;0.40;0.40;;;;;;;16.27;64.99;97101.25;29396;284;63009;-52
2023/09/29 01:52:30;;;;;;;0.40;0.40;;;;;;;16.28;65.32;97105.59;29396;213;63005;-53
2023/09/29 01:53:02;;;;;;;0.40;0.40;;;;;;;16.31;64.92;97099.47;29396;213;63009;-53
2023/09/29 01:53:33;;;;;;;0.40;0.40;;;;;;;16.34;64.80;97099.63;29395;197;64009;-53
2023/09/29 01:54:05;;;;;;;0.40;0.40;;;;;;;16.35;64.43;97097.69;29396;237;63009;-53
2023/09/29 01:54:37;;;;;;;0.40;0.40;;;;;;;16.36;64.61;97097.34;29396;199;63005;-53
2023/09/29 01:55:10;;;;;;;0.40;0.40;;;;;;;16.37;64.56;97103.63;29396;221;63009;-54
2023/09/29 01:55:41;;;;;;;0.40;0.40;;;;;;;16.37;64.83;97096.22;29396;239;63004;-54
2023/09/29 01:56:12;;;;;;;0.40;0.40;;;;;;;16.39;64.42;97099.44;29396;207;63016;-53
2023/09/29 01:56:48;;;;;;;0.40;0.40;;;;;;;16.38;64.52;97099.78;29396;226;63004;-53
2023/09/29 01:57:19;;;;;;;0.40;0.40;;;;;;;16.38;64.59;97099.78;29396;202;63009;-54
2023/09/29 01:57:53;;;;;;;0.40;0.40;;;;;;;16.36;64.66;97091.06;29396;218;63000;-52
2023/09/29 01:58:29;;;;;;;0.40;0.40;;;;;;;16.37;64.62;97093.50;29395;238;64014;-52
2023/09/29 01:59:02;;;;;;;0.40;0.40;;;;;;;16.38;64.39;97089.63;29395;218;64009;-53
2023/09/29 01:59:33;;;;;;;0.40;0.40;;;;;;;16.39;64.35;97095.91;29396;198;63009;-53
2023/09/29 02:00:10;;;;;;;0.40;0.40;;;;;;;16.39;64.35;97091.22;29396;242;63007;-53
2023/09/29 02:00:42;;;;;;;0.40;0.40;;;;;;;16.45;63.83;97097.34;29396;245;63009;-53
2023/09/29 02:01:14;;;;;;;0.40;0.40;;;;;;;16.47;63.96;97080.59;29396;242;63007;-52
2023/09/29 02:01:45;;;;;;;0.40;0.40;;;;;;;16.49;63.54;97084.63;29396;247;63009;-52
2023/09/29 02:02:17;;;;;;;0.40;0.40;;;;;;;16.49;63.60;97097.50;29396;202;63005;-52
2023/09/29 02:02:49;;;;;;;0.40;0.40;;;;;;;16.47;63.64;97097.81;29397;209;63009;-52
2023/09/29 02:03:21;;;;;;;0.40;0.40;;;;;;;16.48;63.81;97088.47;29397;235;63004;-52
2023/09/29 02:03:52;;;;;;;0.32;0.32;;;;;;;16.48;63.63;97082.19;29396;256;64013;-52
2023/09/29 02:04:23;;;;;;;0.40;0.40;;;;;;;16.50;63.55;97075.25;29397;241;63004;-52
2023/09/29 02:04:55;;;;;;;0.40;0.40;;;;;;;16.50;63.46;97088.97;29397;228;63017;-52
2023/09/29 02:05:29;;;;;;;0.40;0.40;;;;;;;16.51;63.55;97087.03;29396;205;64004;-52
2023/09/29 02:06:03;;;;;;;0.40;0.40;;;;;;;16.53;63.19;97085.56;29397;289;63009;-53
2023/09/29 02:06:35;;;;;;;0.45;0.45;;;;;;;16.55;63.27;97086.06;29396;257;64009;-53
2023/09/29 02:07:06;;;;;;;0.40;0.40;;;;;;;16.54;63.30;97087.19;29397;266;63009;-52
2023/09/29 02:07:38;;;;;;;0.40;0.40;;;;;;;16.51;63.55;97087.84;29397;237;63005;-52
2023/09/29 02:08:11;;;;;;;0.40;0.40;;;;;;;16.50;63.47;97080.75;29397;237;63009;-53
2023/09/29 02:08:43;;;;;;;0.40;0.40;;;;;;;16.51;63.41;97082.34;29397;224;63005;-52
2023/09/29 02:09:15;;;;;;;0.50;0.50;;;;;;;16.51;63.34;97087.84;29397;249;63009;-53
2023/09/29 02:09:46;;;;;;;0.40;0.40;;;;;;;16.50;63.33;97085.41;29397;223;63005;-53
2023/09/29 02:10:20;;;;;;;0.40;0.40;;;;;;;16.51;63.45;97076.88;29397;226;63009;-53
2023/09/29 02:10:52;;;;;;;0.40;0.40;;;;;;;16.52;63.28;97081.22;29397;227;63004;-53
2023/09/29 02:11:24;;;;;;;0.40;0.40;;;;;;;16.50;63.23;97088.16;29397;235;63009;-53
2023/09/29 02:11:55;;;;;;;0.40;0.40;;;;;;;16.47;63.21;97081.41;29396;203;64009;-53
2023/09/29 02:12:26;;;;;;;0.40;0.40;;;;;;;16.48;63.55;97088.47;29397;242;63009;-53
2023/09/29 02:12:59;;;;;;;0.40;0.40;;;;;;;16.50;63.27;97086.22;29397;203;63004;-54
2023/09/29 02:13:30;;;;;;;0.40;0.40;;;;;;;16.50;63.21;97086.22;29396;214;64014;-54
2023/09/29 02:14:04;;;;;;;0.40;0.40;;;;;;;16.46;63.44;97090.75;29397;202;63005;-54
2023/09/29 02:14:36;;;;;;;0.40;0.40;;;;;;;16.41;63.50;97088.16;29397;267;63005;-53
2023/09/29 02:15:08;;;;;;;0.40;0.40;;;;;;;16.39;63.41;97087.69;29397;202;63005;-53
2023/09/29 02:15:41;;;;;;;0.40;0.40;;;;;;;16.40;63.72;97097.50;29397;215;63009;-53
2023/09/29 02:16:14;;;;;;;0.50;0.50;;;;;;;16.41;63.60;97090.91;29396;229;64009;-53
2023/09/29 02:16:45;;;;;;;0.40;0.40;;;;;;;16.40;63.58;97081.09;29397;213;63009;-52
2023/09/29 02:17:19;;;;;;;0.50;0.50;;;;;;;16.45;63.79;97096.53;29396;202;63005;-54
2023/09/29 02:17:52;;;;;;;0.40;0.40;;;;;;;16.44;63.53;97098.47;29397;214;63009;-54
2023/09/29 02:18:24;;;;;;;0.40;0.40;;;;;;;16.45;63.59;97078.19;29396;212;63004;-53
2023/09/29 02:18:56;;;;;;;0.30;0.30;;;;;;;16.42;63.56;97074.16;29396;200;63009;-53
2023/09/29 02:19:27;;;;;;;0.60;0.60;;;;;;;16.43;63.70;97091.38;29397;204;63004;-54
2023/09/29 02:19:59;;;;;;;0.40;0.40;;;;;;;16.43;63.72;97088.66;29396;349;63009;-53
2023/09/29 02:20:32;;;;;;;0.40;0.40;;;;;;;16.41;63.82;97079.97;29396;272;63000;-53
2023/09/29 02:21:06;;;;;;;0.40;0.40;;;;;;;16.38;63.84;97088.81;29396;262;63009;-54
2023/09/29 02:21:37;;;;;;;0.40;0.40;;;;;;;16.35;63.98;97086.72;29395;212;64009;-53
2023/09/29 02:22:08;;;;;;;0.40;0.40;;;;;;;16.35;64.01;97086.72;29396;237;63009;-54
2023/09/29 02:22:40;;;;;;;0.40;0.40;;;;;;;16.33;64.12;97086.25;29396;230;63005;-53
2023/09/29 02:23:13;;;;;;;0.40;0.40;;;;;;;16.34;64.16;97079.63;29396;230;63009;-62
2023/09/29 02:23:44;;;;;;;0.40;0.40;;;;;;;16.35;64.18;97084.00;29395;203;64009;-53
2023/09/29 02:24:16;;;;;;;0.40;0.40;;;;;;;16.39;63.99;97085.75;29396;276;63009;-53
2023/09/29 02:24:48;;;;;;;0.40;0.40;;;;;;;16.41;63.86;97082.69;29396;203;63005;-54
2023/09/29 02:25:25;;;;;;;0.40;0.40;;;;;;;16.39;63.85;97084.94;29396;203;63009;-53
2023/09/29 02:26:00;;;;;;;0.40;0.40;;;;;;;16.37;64.20;97081.72;29396;228;63004;-53
2023/09/29 02:26:31;;;;;;;0.40;0.40;;;;;;;16.37;64.05;97081.72;29396;239;63009;-53
2023/09/29 02:27:04;;;;;;;0.40;0.40;;;;;;;16.35;64.17;97086.72;29396;220;63004;-53
2023/09/29 02:27:36;;;;;;;0.40;0.40;;;;;;;16.36;64.39;97069.16;29396;257;63009;-54
2023/09/29 02:28:11;;;;;;;0.40;0.40;;;;;;;16.36;64.12;97080.13;29396;263;63004;-52
2023/09/29 02:28:42;;;;;;;0.40;0.40;;;;;;;16.35;64.22;97081.25;29395;217;64014;-52
2023/09/29 02:29:13;;;;;;;0.70;0.70;;;;;;;16.34;64.15;97091.41;29395;203;64009;-52
2023/09/29 02:29:44;;;;;;;0.40;0.40;;;;;;;16.34;64.34;97088.66;29396;232;63009;-52
2023/09/29 02:30:16;;;;;;;0.40;0.40;;;;;;;16.32;64.38;97090.13;29396;220;63005;-54
2023/09/29 02:30:47;;;;;;;0.40;0.40;;;;;;;16.31;64.38;97088.50;29396;212;63009;-53
2023/09/29 02:31:19;;;;;;;0.40;0.40;;;;;;;16.26;64.46;97085.97;29395;250;64009;-53
2023/09/29 02:31:51;;;;;;;0.40;0.40;;;;;;;16.24;64.64;97088.22;29396;256;63009;-52
2023/09/29 02:32:25;;;;;;;0.40;0.40;;;;;;;16.22;64.85;97085.81;29396;278;63005;-53
2023/09/29 02:32:56;;;;;;;0.40;0.40;;;;;;;16.21;64.84;97088.87;29396;223;63020;-53
2023/09/29 02:33:28;;;;;;;0.40;0.40;;;;;;;16.18;64.87;97089.50;29396;206;63004;-53
2023/09/29 02:33:59;;;;;;;0.40;0.40;;;;;;;16.15;64.91;97090.97;29396;239;63014;-53
2023/09/29 02:34:30;;;;;;;0.40;0.40;;;;;;;16.13;65.23;97095.16;29396;347;63004;-53